sensor_id;sensor_type;location;lat;lon;timestamp;pressure;altitude;pressure_sealevel;temperature;humidity
74960;BME280;63518;49.572;1.106;2023-03-24T00:00:00;98149.19;;;8.50;86.64
74960;BME280;63518;49.572;1.106;2023-03-24T00:02:28;98169.69;;;8.53;85.97
74960;BME280;63518;49.572;1.106;2023-03-24T00:04:55;98172.19;;;8.41;84.72
74960;BME280;63518;49.572;1.106;2023-03-24T00:07:24;98180.31;;;8.46;84.91
74960;BME280;63518;49.572;1.106;2023-03-24T00:09:52;98170.31;;;8.77;85.06
74960;BME280;63518;49.572;1.106;2023-03-24T00:12:19;98171.38;;;8.90;83.85
74960;BME280;63518;49.572;1.106;2023-03-24T00:14:46;98174.25;;;8.85;83.85
74960;BME280;63518;49.572;1.106;2023-03-24T00:17:13;98179.53;;;8.95;84.11
74960;BME280;63518;49.572;1.106;2023-03-24T00:19:43;98175.81;;;8.77;83.03
74960;BME280;63518;49.572;1.106;2023-03-24T00:22:13;98177.75;;;8.99;83.49
74960;BME280;63518;49.572;1.106;2023-03-24T00:24:40;98178.78;;;9.03;83.97
74960;BME280;63518;49.572;1.106;2023-03-24T00:27:07;98180.41;;;9.04;82.90
74960;BME280;63518;49.572;1.106;2023-03-24T00:29:34;98184.94;;;8.87;84.70
74960;BME280;63518;49.572;1.106;2023-03-24T00:32:01;98185.13;;;8.90;82.81
74960;BME280;63518;49.572;1.106;2023-03-24T00:34:28;98191.06;;;8.70;82.69
74960;BME280;63518;49.572;1.106;2023-03-24T00:36:55;98193.00;;;8.69;84.96
74960;BME280;63518;49.572;1.106;2023-03-24T00:39:22;98205.38;;;8.67;85.20
74960;BME280;63518;49.572;1.106;2023-03-24T00:41:49;98200.44;;;8.55;85.33
74960;BME280;63518;49.572;1.106;2023-03-24T00:44:16;98213.63;;;8.67;84.26
74960;BME280;63518;49.572;1.106;2023-03-24T00:46:46;98209.88;;;8.63;83.65
74960;BME280;63518;49.572;1.106;2023-03-24T00:49:24;98200.44;;;8.55;84.74
74960;BME280;63518;49.572;1.106;2023-03-24T00:52:09;98206.53;;;8.52;84.39
74960;BME280;63518;49.572;1.106;2023-03-24T00:54:36;98202.38;;;8.41;84.07
74960;BME280;63518;49.572;1.106;2023-03-24T00:57:03;98216.91;;;8.41;84.23
74960;BME280;63518;49.572;1.106;2023-03-24T00:59:30;98204.63;;;8.39;85.87
74960;BME280;63518;49.572;1.106;2023-03-24T01:01:57;98202.88;;;8.29;87.01
74960;BME280;63518;49.572;1.106;2023-03-24T01:04:24;98209.09;;;8.35;85.77
74960;BME280;63518;49.572;1.106;2023-03-24T01:06:53;98207.88;;;8.54;85.79
74960;BME280;63518;49.572;1.106;2023-03-24T01:09:28;98207.16;;;8.35;85.14
74960;BME280;63518;49.572;1.106;2023-03-24T01:11:59;98230.34;;;8.15;86.17
74960;BME280;63518;49.572;1.106;2023-03-24T01:14:26;98230.84;;;8.31;85.04
74960;BME280;63518;49.572;1.106;2023-03-24T01:16:54;98225.44;;;8.26;85.88
74960;BME280;63518;49.572;1.106;2023-03-24T01:19:21;98225.25;;;8.36;84.95
74960;BME280;63518;49.572;1.106;2023-03-24T01:21:48;98226.47;;;8.44;85.26
74960;BME280;63518;49.572;1.106;2023-03-24T01:24:16;98228.53;;;8.38;86.32
74960;BME280;63518;49.572;1.106;2023-03-24T01:26:43;98230.03;;;8.31;86.53
74960;BME280;63518;49.572;1.106;2023-03-24T01:29:10;98228.19;;;8.26;85.20
74960;BME280;63518;49.572;1.106;2023-03-24T01:31:37;98241.31;;;8.43;85.20
74960;BME280;63518;49.572;1.106;2023-03-24T01:34:04;98244.56;;;8.45;84.10
74960;BME280;63518;49.572;1.106;2023-03-24T01:36:31;98246.63;;;8.39;84.97
74960;BME280;63518;49.572;1.106;2023-03-24T01:38:58;98258.69;;;8.24;86.39
74960;BME280;63518;49.572;1.106;2023-03-24T01:41:28;98244.56;;;8.45;85.43
74960;BME280;63518;49.572;1.106;2023-03-24T01:43:57;98250.06;;;8.45;84.90
74960;BME280;63518;49.572;1.106;2023-03-24T01:46:25;98253.50;;;8.37;84.42
74960;BME280;63518;49.572;1.106;2023-03-24T01:48:58;98249.03;;;8.41;84.71
74960;BME280;63518;49.572;1.106;2023-03-24T01:51:36;98249.16;;;8.49;84.06
74960;BME280;63518;49.572;1.106;2023-03-24T01:54:13;98248.44;;;8.30;84.97
74960;BME280;63518;49.572;1.106;2023-03-24T01:57:06;98244.28;;;8.33;86.37
74960;BME280;63518;49.572;1.106;2023-03-24T01:59:33;98249.03;;;8.27;84.66
74960;BME280;63518;49.572;1.106;2023-03-24T02:02:00;98252.09;;;8.25;84.50
74960;BME280;63518;49.572;1.106;2023-03-24T02:04:33;98257.88;;;8.24;85.15
74960;BME280;63518;49.572;1.106;2023-03-24T02:07:11;98248.50;;;8.11;85.80
74960;BME280;63518;49.572;1.106;2023-03-24T02:09:40;98251.56;;;8.10;86.01
74960;BME280;63518;49.572;1.106;2023-03-24T02:12:07;98256.94;;;8.01;85.16
74960;BME280;63518;49.572;1.106;2023-03-24T02:14:35;98259.47;;;7.97;85.29
74960;BME280;63518;49.572;1.106;2023-03-24T02:17:14;98251.88;;;8.08;85.82
74960;BME280;63518;49.572;1.106;2023-03-24T02:27:46;98266.59;;;7.98;86.49
74960;BME280;63518;49.572;1.106;2023-03-24T02:37:58;98269.06;;;7.81;85.81
74960;BME280;63518;49.572;1.106;2023-03-24T02:41:04;98268.88;;;7.78;84.90
74960;BME280;63518;49.572;1.106;2023-03-24T02:43:36;98249.56;;;7.69;85.96
74960;BME280;63518;49.572;1.106;2023-03-24T02:51:48;98264.97;;;7.65;84.58
74960;BME280;63518;49.572;1.106;2023-03-24T02:54:18;98279.72;;;7.69;85.83
74960;BME280;63518;49.572;1.106;2023-03-24T02:56:54;98280.34;;;7.80;84.27
74960;BME280;63518;49.572;1.106;2023-03-24T03:02:06;98270.63;;;7.55;85.14
74960;BME280;63518;49.572;1.106;2023-03-24T03:04:41;98272.84;;;7.53;84.94
74960;BME280;63518;49.572;1.106;2023-03-24T03:07:12;98290.19;;;7.48;84.19
74960;BME280;63518;49.572;1.106;2023-03-24T03:09:48;98287.25;;;7.77;83.53
74960;BME280;63518;49.572;1.106;2023-03-24T03:12:18;98300.47;;;7.75;83.20
74960;BME280;63518;49.572;1.106;2023-03-24T03:14:51;98292.25;;;7.56;84.04
74960;BME280;63518;49.572;1.106;2023-03-24T03:17:28;98298.41;;;7.67;83.92
74960;BME280;63518;49.572;1.106;2023-03-24T03:19:59;98278.66;;;7.51;84.44
74960;BME280;63518;49.572;1.106;2023-03-24T03:22:40;98288.31;;;7.62;84.57
74960;BME280;63518;49.572;1.106;2023-03-24T03:25:11;98290.44;;;7.52;83.69
74960;BME280;63518;49.572;1.106;2023-03-24T03:27:40;98304.88;;;7.38;85.09
74960;BME280;63518;49.572;1.106;2023-03-24T03:30:15;98293.88;;;7.57;84.93
74960;BME280;63518;49.572;1.106;2023-03-24T03:32:50;98291.91;;;7.44;85.31
74960;BME280;63518;49.572;1.106;2023-03-24T03:35:40;98297.78;;;7.70;84.63
74960;BME280;63518;49.572;1.106;2023-03-24T03:38:21;98299.28;;;7.62;84.73
74960;BME280;63518;49.572;1.106;2023-03-24T03:40:51;98293.00;;;7.62;84.70
74960;BME280;63518;49.572;1.106;2023-03-24T03:43:21;98290.94;;;7.54;85.13
74960;BME280;63518;49.572;1.106;2023-03-24T03:45:49;98280.81;;;7.35;84.63
74960;BME280;63518;49.572;1.106;2023-03-24T03:48:17;98287.09;;;7.36;85.46
74960;BME280;63518;49.572;1.106;2023-03-24T03:50:45;98278.06;;;7.35;85.10
74960;BME280;63518;49.572;1.106;2023-03-24T03:53:14;98281.31;;;7.37;85.39
74960;BME280;63518;49.572;1.106;2023-03-24T03:55:43;98294.34;;;7.45;85.04
74960;BME280;63518;49.572;1.106;2023-03-24T03:58:11;98295.03;;;7.37;85.01
74960;BME280;63518;49.572;1.106;2023-03-24T04:00:39;98280.44;;;7.23;85.76
74960;BME280;63518;49.572;1.106;2023-03-24T04:08:56;98290.94;;;7.16;87.29
74960;BME280;63518;49.572;1.106;2023-03-24T04:11:48;98291.09;;;7.25;85.96
74960;BME280;63518;49.572;1.106;2023-03-24T04:20:08;98304.78;;;7.25;86.01
74960;BME280;63518;49.572;1.106;2023-03-24T04:22:58;98294.06;;;7.28;84.46
74960;BME280;63518;49.572;1.106;2023-03-24T04:29:14;98313.75;;;7.11;86.27
74960;BME280;63518;49.572;1.106;2023-03-24T04:31:42;98303.31;;;7.13;86.91
74960;BME280;63518;49.572;1.106;2023-03-24T04:34:17;98291.53;;;7.13;85.52
74960;BME280;63518;49.572;1.106;2023-03-24T04:36:55;98293.91;;;7.01;86.91
74960;BME280;63518;49.572;1.106;2023-03-24T04:39:25;98302.06;;;7.06;86.56
74960;BME280;63518;49.572;1.106;2023-03-24T04:41:57;98309.91;;;7.12;86.75
74960;BME280;63518;49.572;1.106;2023-03-24T04:44:25;98293.38;;;6.99;86.62
74960;BME280;63518;49.572;1.106;2023-03-24T04:46:55;98312.84;;;6.97;86.49
74960;BME280;63518;49.572;1.106;2023-03-24T04:49:25;98307.38;;;6.97;86.73
74960;BME280;63518;49.572;1.106;2023-03-24T04:51:53;98319.00;;;7.08;86.39
74960;BME280;63518;49.572;1.106;2023-03-24T04:54:23;98306.34;;;7.12;87.07
74960;BME280;63518;49.572;1.106;2023-03-24T04:56:52;98324.78;;;7.25;86.33
74960;BME280;63518;49.572;1.106;2023-03-24T04:59:21;98312.56;;;6.99;86.88
74960;BME280;63518;49.572;1.106;2023-03-24T05:01:48;98328.41;;;7.02;86.79
74960;BME280;63518;49.572;1.106;2023-03-24T05:04:24;98336.91;;;7.00;86.78
74960;BME280;63518;49.572;1.106;2023-03-24T05:06:51;98328.75;;;6.95;86.55
74960;BME280;63518;49.572;1.106;2023-03-24T05:09:21;98332.38;;;6.91;87.39
74960;BME280;63518;49.572;1.106;2023-03-24T05:11:49;98330.41;;;6.96;86.95
74960;BME280;63518;49.572;1.106;2023-03-24T05:14:16;98348.53;;;7.11;85.38
74960;BME280;63518;49.572;1.106;2023-03-24T05:16:44;98345.59;;;7.07;86.52
74960;BME280;63518;49.572;1.106;2023-03-24T05:19:11;98331.28;;;6.92;85.95
74960;BME280;63518;49.572;1.106;2023-03-24T05:21:38;98354.25;;;6.96;85.82
74960;BME280;63518;49.572;1.106;2023-03-24T05:24:06;98344.25;;;7.05;85.50
74960;BME280;63518;49.572;1.106;2023-03-24T05:26:34;98348.22;;;6.94;86.57
74960;BME280;63518;49.572;1.106;2023-03-24T05:29:01;98363.94;;;7.07;86.29
74960;BME280;63518;49.572;1.106;2023-03-24T05:31:29;98360.34;;;7.11;86.03
74960;BME280;63518;49.572;1.106;2023-03-24T05:33:56;98358.00;;;7.00;86.99
74960;BME280;63518;49.572;1.106;2023-03-24T05:36:24;98358.59;;;6.97;87.03
74960;BME280;63518;49.572;1.106;2023-03-24T05:38:51;98355.09;;;6.91;87.69
74960;BME280;63518;49.572;1.106;2023-03-24T05:41:18;98362.78;;;7.13;87.17
74960;BME280;63518;49.572;1.106;2023-03-24T05:43:45;98366.34;;;7.13;86.84
74960;BME280;63518;49.572;1.106;2023-03-24T05:46:12;98380.88;;;7.33;86.15
74960;BME280;63518;49.572;1.106;2023-03-24T05:48:40;98356.50;;;7.12;86.89
74960;BME280;63518;49.572;1.106;2023-03-24T05:51:07;98380.13;;;7.27;86.50
74960;BME280;63518;49.572;1.106;2023-03-24T05:53:37;98377.06;;;7.10;86.70
74960;BME280;63518;49.572;1.106;2023-03-24T05:56:04;98372.78;;;7.23;87.08
74960;BME280;63518;49.572;1.106;2023-03-24T05:58:31;98355.38;;;7.13;85.86
74960;BME280;63518;49.572;1.106;2023-03-24T06:01:06;98380.72;;;7.24;85.88
74960;BME280;63518;49.572;1.106;2023-03-24T06:03:34;98378.69;;;7.11;87.34
74960;BME280;63518;49.572;1.106;2023-03-24T06:06:06;98362.47;;;6.96;87.15
74960;BME280;63518;49.572;1.106;2023-03-24T06:08:34;98373.34;;;7.01;86.67
74960;BME280;63518;49.572;1.106;2023-03-24T06:11:02;98380.34;;;7.31;86.60
74960;BME280;63518;49.572;1.106;2023-03-24T06:13:30;98388.47;;;7.17;86.75
74960;BME280;63518;49.572;1.106;2023-03-24T06:15:58;98384.75;;;7.08;87.97
74960;BME280;63518;49.572;1.106;2023-03-24T06:18:29;98388.34;;;7.27;86.95
74960;BME280;63518;49.572;1.106;2023-03-24T06:20:58;98391.00;;;7.13;86.04
74960;BME280;63518;49.572;1.106;2023-03-24T06:23:27;98386.31;;;7.14;87.47
74960;BME280;63518;49.572;1.106;2023-03-24T06:25:55;98385.16;;;7.20;86.63
74960;BME280;63518;49.572;1.106;2023-03-24T06:28:24;98398.25;;;7.23;87.58
74960;BME280;63518;49.572;1.106;2023-03-24T06:30:51;98394.75;;;7.17;87.39
74960;BME280;63518;49.572;1.106;2023-03-24T06:33:19;98370.72;;;7.14;86.84
74960;BME280;63518;49.572;1.106;2023-03-24T06:35:47;98380.84;;;7.14;85.88
74960;BME280;63518;49.572;1.106;2023-03-24T06:38:15;98408.16;;;7.43;86.47
74960;BME280;63518;49.572;1.106;2023-03-24T06:40:42;98405.88;;;7.26;86.36
74960;BME280;63518;49.572;1.106;2023-03-24T06:43:09;98377.91;;;7.29;87.15
74960;BME280;63518;49.572;1.106;2023-03-24T06:45:36;98389.63;;;7.11;87.86
74960;BME280;63518;49.572;1.106;2023-03-24T06:48:05;98423.69;;;7.29;87.13
74960;BME280;63518;49.572;1.106;2023-03-24T06:50:32;98424.59;;;7.43;86.52
74960;BME280;63518;49.572;1.106;2023-03-24T06:53:01;98418.53;;;7.46;87.38
74960;BME280;63518;49.572;1.106;2023-03-24T06:55:28;98407.75;;;7.31;86.96
74960;BME280;63518;49.572;1.106;2023-03-24T06:57:55;98411.72;;;7.43;86.02
74960;BME280;63518;49.572;1.106;2023-03-24T07:00:22;98423.13;;;7.51;86.71
74960;BME280;63518;49.572;1.106;2023-03-24T07:02:51;98423.84;;;7.56;87.33
74960;BME280;63518;49.572;1.106;2023-03-24T07:05:18;98383.03;;;7.36;87.33
74960;BME280;63518;49.572;1.106;2023-03-24T07:07:45;98437.00;;;7.59;85.94
74960;BME280;63518;49.572;1.106;2023-03-24T07:10:15;98443.28;;;7.60;86.54
74960;BME280;63518;49.572;1.106;2023-03-24T07:12:45;98438.94;;;7.59;87.13
74960;BME280;63518;49.572;1.106;2023-03-24T07:15:13;98440.09;;;7.71;86.09
74960;BME280;63518;49.572;1.106;2023-03-24T07:17:41;98440.41;;;7.70;86.99
74960;BME280;63518;49.572;1.106;2023-03-24T07:20:08;98443.09;;;7.75;86.23
74960;BME280;63518;49.572;1.106;2023-03-24T07:22:35;98441.97;;;7.76;86.69
74960;BME280;63518;49.572;1.106;2023-03-24T07:25:03;98455.06;;;7.79;86.18
74960;BME280;63518;49.572;1.106;2023-03-24T07:27:31;98456.78;;;8.13;84.73
74960;BME280;63518;49.572;1.106;2023-03-24T07:29:59;98465.91;;;8.08;85.61
74960;BME280;63518;49.572;1.106;2023-03-24T07:32:28;98464.69;;;8.33;85.32
74960;BME280;63518;49.572;1.106;2023-03-24T07:34:56;98463.31;;;8.17;85.32
74960;BME280;63518;49.572;1.106;2023-03-24T07:37:23;98454.78;;;7.99;86.27
74960;BME280;63518;49.572;1.106;2023-03-24T07:39:50;98463.16;;;8.08;86.00
74960;BME280;63518;49.572;1.106;2023-03-24T07:42:17;98452.78;;;8.24;86.20
74960;BME280;63518;49.572;1.106;2023-03-24T07:44:44;98469.69;;;8.45;84.34
74960;BME280;63518;49.572;1.106;2023-03-24T07:47:11;98465.75;;;8.51;83.27
74960;BME280;63518;49.572;1.106;2023-03-24T07:49:38;98449.34;;;8.32;83.92
74960;BME280;63518;49.572;1.106;2023-03-24T07:52:05;98449.28;;;8.51;83.53
74960;BME280;63518;49.572;1.106;2023-03-24T07:54:32;98475.53;;;8.76;82.72
74960;BME280;63518;49.572;1.106;2023-03-24T07:57:00;98462.09;;;8.74;82.68
74960;BME280;63518;49.572;1.106;2023-03-24T07:59:27;98481.63;;;8.73;82.50
74960;BME280;63518;49.572;1.106;2023-03-24T08:01:55;98487.28;;;8.63;84.07
74960;BME280;63518;49.572;1.106;2023-03-24T08:04:26;98475.25;;;8.91;82.48
74960;BME280;63518;49.572;1.106;2023-03-24T08:06:54;98473.13;;;9.16;82.18
74960;BME280;63518;49.572;1.106;2023-03-24T08:09:21;98474.16;;;9.20;81.29
74960;BME280;63518;49.572;1.106;2023-03-24T08:11:50;98486.81;;;9.48;78.73
74960;BME280;63518;49.572;1.106;2023-03-24T08:14:17;98480.97;;;9.22;81.31
74960;BME280;63518;49.572;1.106;2023-03-24T08:16:44;98492.81;;;9.64;79.04
74960;BME280;63518;49.572;1.106;2023-03-24T08:19:12;98486.59;;;9.45;80.13
74960;BME280;63518;49.572;1.106;2023-03-24T08:21:39;98496.06;;;9.52;81.06
74960;BME280;63518;49.572;1.106;2023-03-24T08:24:07;98487.19;;;9.69;79.66
74960;BME280;63518;49.572;1.106;2023-03-24T08:26:34;98486.47;;;9.22;82.58
74960;BME280;63518;49.572;1.106;2023-03-24T08:29:02;98498.19;;;9.55;80.76
74960;BME280;63518;49.572;1.106;2023-03-24T08:31:33;98496.94;;;9.89;78.58
74960;BME280;63518;49.572;1.106;2023-03-24T08:34:01;98498.19;;;9.69;78.50
74960;BME280;63518;49.572;1.106;2023-03-24T08:36:28;98499.06;;;9.92;78.55
74960;BME280;63518;49.572;1.106;2023-03-24T08:38:55;98501.69;;;10.11;78.85
74960;BME280;63518;49.572;1.106;2023-03-24T08:41:22;98496.91;;;10.03;78.43
74960;BME280;63518;49.572;1.106;2023-03-24T08:44:01;98502.31;;;10.08;78.25
74960;BME280;63518;49.572;1.106;2023-03-24T08:46:33;98499.91;;;9.79;79.72
74960;BME280;63518;49.572;1.106;2023-03-24T08:49:00;98511.28;;;10.13;77.97
74960;BME280;63518;49.572;1.106;2023-03-24T08:51:28;98514.38;;;9.98;79.37
74960;BME280;63518;49.572;1.106;2023-03-24T08:53:55;98522.53;;;10.25;76.78
74960;BME280;63518;49.572;1.106;2023-03-24T08:56:23;98505.59;;;10.46;76.79
74960;BME280;63518;49.572;1.106;2023-03-24T08:58:51;98515.47;;;10.69;75.66
74960;BME280;63518;49.572;1.106;2023-03-24T09:01:20;98525.09;;;10.58;76.55
74960;BME280;63518;49.572;1.106;2023-03-24T09:03:49;98493.75;;;10.90;75.55
74960;BME280;63518;49.572;1.106;2023-03-24T09:06:16;98517.09;;;10.93;76.13
74960;BME280;63518;49.572;1.106;2023-03-24T09:08:44;98528.44;;;10.91;75.27
74960;BME280;63518;49.572;1.106;2023-03-24T09:11:15;98531.41;;;11.66;72.81
74960;BME280;63518;49.572;1.106;2023-03-24T09:13:43;98508.78;;;11.46;73.61
74960;BME280;63518;49.572;1.106;2023-03-24T09:16:10;98532.75;;;11.06;74.94
74960;BME280;63518;49.572;1.106;2023-03-24T09:18:37;98519.03;;;11.54;73.15
74960;BME280;63518;49.572;1.106;2023-03-24T09:21:05;98521.53;;;11.73;70.77
74960;BME280;63518;49.572;1.106;2023-03-24T09:23:34;98527.66;;;12.18;68.33
74960;BME280;63518;49.572;1.106;2023-03-24T09:26:02;98522.16;;;12.27;68.40
74960;BME280;63518;49.572;1.106;2023-03-24T09:28:30;98518.34;;;11.88;72.00
74960;BME280;63518;49.572;1.106;2023-03-24T09:30:59;98528.00;;;12.26;66.98
74960;BME280;63518;49.572;1.106;2023-03-24T09:33:27;98511.56;;;12.12;68.30
74960;BME280;63518;49.572;1.106;2023-03-24T09:35:57;98515.34;;;12.42;69.22
74960;BME280;63518;49.572;1.106;2023-03-24T09:38:27;98512.56;;;12.33;68.14
74960;BME280;63518;49.572;1.106;2023-03-24T09:40:59;98516.63;;;12.62;68.29
74960;BME280;63518;49.572;1.106;2023-03-24T09:43:48;98526.88;;;12.27;69.63
74960;BME280;63518;49.572;1.106;2023-03-24T09:46:27;98528.38;;;11.84;71.20
74960;BME280;63518;49.572;1.106;2023-03-24T09:48:56;98538.69;;;11.61;71.01
74960;BME280;63518;49.572;1.106;2023-03-24T09:51:30;98519.47;;;11.87;67.38
74960;BME280;63518;49.572;1.106;2023-03-24T09:54:15;98537.47;;;11.76;66.46
74960;BME280;63518;49.572;1.106;2023-03-24T09:56:45;98542.41;;;12.05;69.06
74960;BME280;63518;49.572;1.106;2023-03-24T09:59:42;98543.66;;;11.82;67.14
74960;BME280;63518;49.572;1.106;2023-03-24T10:02:15;98538.28;;;11.77;69.57
74960;BME280;63518;49.572;1.106;2023-03-24T10:04:44;98534.59;;;11.90;68.25
74960;BME280;63518;49.572;1.106;2023-03-24T10:07:41;98541.09;;;11.54;70.01
74960;BME280;63518;49.572;1.106;2023-03-24T10:13:08;98543.06;;;11.54;68.97
74960;BME280;63518;49.572;1.106;2023-03-24T10:15:51;98539.84;;;12.09;67.56
74960;BME280;63518;49.572;1.106;2023-03-24T10:18:35;98544.78;;;11.81;68.95
74960;BME280;63518;49.572;1.106;2023-03-24T10:21:16;98535.28;;;12.13;65.08
74960;BME280;63518;49.572;1.106;2023-03-24T10:24:00;98547.16;;;12.31;66.22
74960;BME280;63518;49.572;1.106;2023-03-24T10:29:33;98524.59;;;12.46;64.75
74960;BME280;63518;49.572;1.106;2023-03-24T10:32:15;98524.25;;;12.73;64.05
74960;BME280;63518;49.572;1.106;2023-03-24T10:34:49;98524.72;;;12.32;66.66
74960;BME280;63518;49.572;1.106;2023-03-24T10:37:19;98556.59;;;12.21;64.65
74960;BME280;63518;49.572;1.106;2023-03-24T10:39:47;98522.91;;;11.93;67.02
74960;BME280;63518;49.572;1.106;2023-03-24T10:42:17;98541.41;;;11.53;70.56
74960;BME280;63518;49.572;1.106;2023-03-24T10:44:50;98555.19;;;11.84;69.75
74960;BME280;63518;49.572;1.106;2023-03-24T10:47:29;98553.94;;;11.28;72.90
74960;BME280;63518;49.572;1.106;2023-03-24T10:50:01;98562.25;;;12.16;68.97
74960;BME280;63518;49.572;1.106;2023-03-24T10:52:40;98532.25;;;12.49;66.51
74960;BME280;63518;49.572;1.106;2023-03-24T10:55:14;98562.31;;;12.68;68.18
74960;BME280;63518;49.572;1.106;2023-03-24T10:57:44;98539.72;;;12.66;67.80
74960;BME280;63518;49.572;1.106;2023-03-24T11:00:22;98571.75;;;12.67;64.27
74960;BME280;63518;49.572;1.106;2023-03-24T11:02:58;98562.31;;;12.85;63.23
74960;BME280;63518;49.572;1.106;2023-03-24T11:05:35;98570.75;;;12.45;62.60
74960;BME280;63518;49.572;1.106;2023-03-24T11:14:00;98555.78;;;12.55;62.19
74960;BME280;63518;49.572;1.106;2023-03-24T11:16:36;98554.81;;;12.34;63.09
74960;BME280;63518;49.572;1.106;2023-03-24T11:19:24;98560.50;;;12.55;62.33
74960;BME280;63518;49.572;1.106;2023-03-24T11:21:58;98557.88;;;12.32;66.99
74960;BME280;63518;49.572;1.106;2023-03-24T11:24:29;98566.94;;;11.98;68.17
74960;BME280;63518;49.572;1.106;2023-03-24T11:27:01;98558.69;;;12.15;67.83
74960;BME280;63518;49.572;1.106;2023-03-24T11:29:37;98563.72;;;12.22;67.69
74960;BME280;63518;49.572;1.106;2023-03-24T11:32:32;98561.59;;;12.10;65.78
74960;BME280;63518;49.572;1.106;2023-03-24T11:35:07;98569.84;;;11.93;65.60
74960;BME280;63518;49.572;1.106;2023-03-24T11:37:45;98559.91;;;11.92;63.45
74960;BME280;63518;49.572;1.106;2023-03-24T11:40:22;98556.13;;;11.71;65.79
74960;BME280;63518;49.572;1.106;2023-03-24T11:43:00;98554.03;;;11.76;65.88
74960;BME280;63518;49.572;1.106;2023-03-24T11:45:38;98544.53;;;12.08;64.88
74960;BME280;63518;49.572;1.106;2023-03-24T11:48:31;98553.28;;;11.93;64.81
74960;BME280;63518;49.572;1.106;2023-03-24T11:51:00;98561.88;;;11.91;66.91
74960;BME280;63518;49.572;1.106;2023-03-24T11:53:45;98564.25;;;11.45;70.11
74960;BME280;63518;49.572;1.106;2023-03-24T11:56:23;98577.38;;;11.39;70.78
74960;BME280;63518;49.572;1.106;2023-03-24T12:01:35;98572.47;;;11.67;70.08
74960;BME280;63518;49.572;1.106;2023-03-24T12:04:18;98572.78;;;11.66;69.88
74960;BME280;63518;49.572;1.106;2023-03-24T12:12:28;98566.72;;;11.77;69.23
74960;BME280;63518;49.572;1.106;2023-03-24T12:20:46;98536.09;;;11.65;66.67
74960;BME280;63518;49.572;1.106;2023-03-24T12:26:15;98532.03;;;12.11;66.73
74960;BME280;63518;49.572;1.106;2023-03-24T12:28:55;98535.75;;;11.98;68.36
74960;BME280;63518;49.572;1.106;2023-03-24T12:36:51;98542.81;;;11.42;71.09
74960;BME280;63518;49.572;1.106;2023-03-24T12:39:28;98530.84;;;11.77;69.22
74960;BME280;63518;49.572;1.106;2023-03-24T13:03:52;98505.84;;;13.12;63.33
74960;BME280;63518;49.572;1.106;2023-03-24T13:06:35;98513.81;;;13.14;62.90
74960;BME280;63518;49.572;1.106;2023-03-24T13:09:33;98506.91;;;13.37;63.55
74960;BME280;63518;49.572;1.106;2023-03-24T13:28:41;98447.84;;;16.10;57.08
74960;BME280;63518;49.572;1.106;2023-03-24T13:31:13;98459.91;;;14.71;58.13
74960;BME280;63518;49.572;1.106;2023-03-24T13:33:42;98477.25;;;14.47;56.49
74960;BME280;63518;49.572;1.106;2023-03-24T13:38:49;98495.75;;;10.31;63.09
74960;BME280;63518;49.572;1.106;2023-03-24T13:41:20;98483.94;;;9.39;66.25
74960;BME280;63518;49.572;1.106;2023-03-24T13:44:01;98516.81;;;9.03;68.79
74960;BME280;63518;49.572;1.106;2023-03-24T13:46:30;98538.03;;;8.65;71.86
74960;BME280;63518;49.572;1.106;2023-03-24T13:48:58;98543.25;;;7.91;76.41
74960;BME280;63518;49.572;1.106;2023-03-24T13:51:31;98534.41;;;8.70;75.86
74960;BME280;63518;49.572;1.106;2023-03-24T13:54:04;98535.59;;;8.64;76.24
74960;BME280;63518;49.572;1.106;2023-03-24T13:56:33;98554.97;;;9.05;78.09
74960;BME280;63518;49.572;1.106;2023-03-24T14:01:34;98544.38;;;8.98;77.82
74960;BME280;63518;49.572;1.106;2023-03-24T14:06:52;98539.94;;;9.30;78.68
74960;BME280;63518;49.572;1.106;2023-03-24T14:14:22;98511.63;;;9.71;78.05
74960;BME280;63518;49.572;1.106;2023-03-24T14:17:14;98521.84;;;9.56;77.65
74960;BME280;63518;49.572;1.106;2023-03-24T14:22:43;98532.22;;;9.59;78.29
74960;BME280;63518;49.572;1.106;2023-03-24T14:27:42;98550.44;;;9.28;77.09
74960;BME280;63518;49.572;1.106;2023-03-24T14:32:43;98569.34;;;9.16;76.95
74960;BME280;63518;49.572;1.106;2023-03-24T14:40:44;98568.16;;;8.89;78.96
74960;BME280;63518;49.572;1.106;2023-03-24T14:43:22;98569.22;;;8.74;79.29
74960;BME280;63518;49.572;1.106;2023-03-24T14:46:03;98538.97;;;8.93;79.26
74960;BME280;63518;49.572;1.106;2023-03-24T14:48:54;98531.22;;;9.42;80.05
74960;BME280;63518;49.572;1.106;2023-03-24T14:51:37;98548.34;;;9.80;78.45
74960;BME280;63518;49.572;1.106;2023-03-24T14:54:14;98546.81;;;9.74;79.40
74960;BME280;63518;49.572;1.106;2023-03-24T14:56:44;98549.16;;;10.66;75.46
74960;BME280;63518;49.572;1.106;2023-03-24T14:59:21;98545.03;;;10.77;74.68
74960;BME280;63518;49.572;1.106;2023-03-24T15:01:53;98530.75;;;11.29;73.85
74960;BME280;63518;49.572;1.106;2023-03-24T15:04:24;98532.88;;;10.78;75.57
74960;BME280;63518;49.572;1.106;2023-03-24T15:06:51;98538.03;;;10.71;75.52
74960;BME280;63518;49.572;1.106;2023-03-24T15:09:18;98524.66;;;11.10;73.35
74960;BME280;63518;49.572;1.106;2023-03-24T15:11:45;98527.97;;;10.98;73.29
74960;BME280;63518;49.572;1.106;2023-03-24T15:14:34;98525.94;;;11.43;72.29
74960;BME280;63518;49.572;1.106;2023-03-24T15:17:02;98534.78;;;11.54;72.17
74960;BME280;63518;49.572;1.106;2023-03-24T15:19:30;98527.72;;;11.70;71.75
74960;BME280;63518;49.572;1.106;2023-03-24T15:22:01;98532.84;;;12.03;70.16
74960;BME280;63518;49.572;1.106;2023-03-24T15:24:34;98535.56;;;11.46;69.18
74960;BME280;63518;49.572;1.106;2023-03-24T15:29:32;98509.28;;;11.57;68.26
74960;BME280;63518;49.572;1.106;2023-03-24T15:31:59;98512.63;;;11.05;71.63
74960;BME280;63518;49.572;1.106;2023-03-24T15:36:54;98506.03;;;12.12;68.92
74960;BME280;63518;49.572;1.106;2023-03-24T15:39:26;98511.06;;;12.01;67.08
74960;BME280;63518;49.572;1.106;2023-03-24T15:41:53;98501.13;;;11.91;67.96
74960;BME280;63518;49.572;1.106;2023-03-24T15:44:22;98509.16;;;11.62;69.23
74960;BME280;63518;49.572;1.106;2023-03-24T15:46:52;98511.25;;;11.56;70.23
74960;BME280;63518;49.572;1.106;2023-03-24T15:49:24;98518.19;;;10.83;70.23
74960;BME280;63518;49.572;1.106;2023-03-24T15:54:23;98534.63;;;10.97;71.47